Time;durP1;ratioP1;P1;durP2;ratioP2;P2;SDS_P1;SDS_P2;PMS_P1;PMS_P2;Temp;Humidity;BMP_temperature;BMP_pressure;BME280_temperature;BME280_humidity;BME280_pressure;Samples;Min_cycle;Max_cycle;Signal;HPM_P1;HPM_P2
2021/08/14 00:00:19;;;;;;;24.60;5.18;;;21.90;79.70;;;;;;4266195;27;20058;-70
2021/08/14 00:02:22;;;;;;;24.85;5.15;;;21.80;80.10;;;;;;4266029;27;20050;-71
2021/08/14 00:04:27;;;;;;;20.83;5.10;;;21.80;80.00;;;;;;4265886;27;20407;-71
2021/08/14 00:06:30;;;;;;;17.10;4.60;;;21.90;79.40;;;;;;4266581;27;20054;-71
2021/08/14 00:08:33;;;;;;;29.13;5.40;;;21.90;79.80;;;;;;4265981;27;20051;-71
2021/08/14 00:10:36;;;;;;;21.15;4.60;;;22.10;79.00;;;;;;4265779;27;20448;-71
2021/08/14 00:12:39;;;;;;;18.48;4.38;;;22.20;78.80;;;;;;4265812;27;20088;-71
2021/08/14 00:14:42;;;;;;;20.58;5.07;;;22.20;79.10;;;;;;4265528;27;20042;-71
2021/08/14 00:16:45;;;;;;;23.63;4.55;;;22.10;79.20;;;;;;4265243;27;20066;-71
2021/08/14 00:18:48;;;;;;;17.05;4.53;;;22.00;79.40;;;;;;4265466;27;20051;-71
2021/08/14 00:20:52;;;;;;;18.95;4.28;;;21.90;79.40;;;;;;4265723;27;20054;-72
2021/08/14 00:22:58;;;;;;;21.60;4.22;;;21.90;79.20;;;;;;4265739;27;20444;-71
2021/08/14 00:25:01;;;;;;;14.55;4.28;;;21.90;79.20;;;;;;4265879;27;20115;-70
2021/08/14 00:27:04;;;;;;;21.88;4.93;;;21.90;79.40;;;;;;4265568;27;20103;-71
2021/08/14 00:29:07;;;;;;;13.88;4.22;;;21.80;79.60;;;;;;4265495;27;20055;-71
2021/08/14 00:31:14;;;;;;;22.10;4.35;;;21.70;79.30;;;;;;4265658;27;20046;-71
2021/08/14 00:33:17;;;;;;;17.83;4.72;;;21.70;79.80;;;;;;4254369;27;20112;-71
2021/08/14 00:35:20;;;;;;;20.73;4.35;;;21.70;79.40;;;;;;4248626;27;20051;-71
2021/08/14 00:37:24;;;;;;;22.27;4.93;;;21.70;79.30;;;;;;4248506;27;20078;-71
2021/08/14 00:39:27;;;;;;;19.38;4.28;;;21.50;80.10;;;;;;4248382;27;20059;-71
2021/08/14 00:41:30;;;;;;;15.85;4.32;;;21.60;79.90;;;;;;4230250;28;20110;-71
2021/08/14 00:43:34;;;;;;;15.10;4.22;;;21.50;80.60;;;;;;4248266;27;20055;-71
2021/08/14 00:45:39;;;;;;;17.23;4.85;;;21.50;80.80;;;;;;4247986;27;20051;-71
2021/08/14 00:47:55;;;;;;;27.08;5.40;;;21.60;79.80;;;;;;4248047;27;20115;-71
2021/08/14 00:49:58;;;;;;;14.10;4.10;;;21.60;79.90;;;;;;4248045;27;20055;-76
2021/08/14 00:52:01;;;;;;;18.40;4.55;;;21.50;79.80;;;;;;4248078;27;20096;-71
2021/08/14 00:54:05;;;;;;;18.92;4.53;;;21.50;79.80;;;;;;4247615;27;20119;-74
2021/08/14 00:56:08;;;;;;;21.65;4.65;;;21.50;79.80;;;;;;4247195;27;20047;-71
2021/08/14 00:58:12;;;;;;;19.58;5.22;;;21.50;79.90;;;;;;4247848;27;20105;-71
2021/08/14 01:00:15;;;;;;;19.85;5.55;;;21.70;79.60;;;;;;4229978;27;20047;-71
2021/08/14 01:02:19;;;;;;;24.45;4.68;;;21.70;79.00;;;;;;4247860;27;20054;-71
2021/08/14 01:04:23;;;;;;;15.88;4.57;;;21.70;79.50;;;;;;4248043;27;20055;-70
2021/08/14 01:06:26;;;;;;;22.58;4.68;;;21.70;78.90;;;;;;4247875;27;20582;-71
2021/08/14 01:08:29;;;;;;;17.38;4.30;;;21.70;78.60;;;;;;4247742;27;20059;-71
2021/08/14 01:10:33;;;;;;;14.68;4.40;;;21.70;79.10;;;;;;4263255;27;20054;-71
2021/08/14 01:12:36;;;;;;;17.52;4.78;;;21.70;79.00;;;;;;4264762;27;20043;-70
2021/08/14 01:14:39;;;;;;;19.23;4.15;;;21.70;79.10;;;;;;4264756;27;20092;-70
2021/08/14 01:16:42;;;;;;;15.57;4.43;;;21.70;79.10;;;;;;4264991;27;20099;-71
2021/08/14 01:18:46;;;;;;;19.77;4.97;;;21.70;79.40;;;;;;4264700;27;20047;-71
2021/08/14 01:20:49;;;;;;;13.43;3.80;;;21.80;78.80;;;;;;4246603;27;20100;-71
2021/08/14 01:22:52;;;;;;;22.20;5.43;;;21.80;78.20;;;;;;4264857;27;20092;-71
2021/08/14 01:24:56;;;;;;;18.13;4.75;;;21.90;78.50;;;;;;4264510;27;20046;-71
2021/08/14 01:27:00;;;;;;;19.33;4.65;;;22.00;78.20;;;;;;4264414;27;20452;-71
2021/08/14 01:29:04;;;;;;;15.57;4.60;;;21.90;78.20;;;;;;4264172;27;20055;-71
2021/08/14 01:31:08;;;;;;;16.17;4.40;;;22.00;77.90;;;;;;4246078;27;20051;-70
2021/08/14 01:33:13;;;;;;;20.13;5.20;;;22.00;77.50;;;;;;4264345;27;20099;-71
2021/08/14 01:35:16;;;;;;;21.42;4.68;;;22.00;78.20;;;;;;4264580;27;20111;-70
2021/08/14 01:37:19;;;;;;;21.23;4.13;;;21.90;78.70;;;;;;4264519;27;20106;-71
2021/08/14 01:39:22;;;;;;;21.23;4.57;;;22.00;78.90;;;;;;4264428;27;20063;-70
2021/08/14 01:41:25;;;;;;;24.70;4.90;;;21.80;79.40;;;;;;4264224;27;20144;-71
2021/08/14 01:43:30;;;;;;;16.70;4.22;;;21.80;78.90;;;;;;4264412;27;20498;-71
2021/08/14 01:45:33;;;;;;;23.13;5.32;;;21.80;79.00;;;;;;4264162;27;20566;-71
2021/08/14 01:47:36;;;;;;;18.38;4.63;;;21.80;79.40;;;;;;4264200;27;20465;-71
2021/08/14 01:49:39;;;;;;;18.10;4.70;;;21.70;79.40;;;;;;4264013;27;20499;-71
2021/08/14 01:51:42;;;;;;;18.42;4.78;;;21.80;79.10;;;;;;4264209;27;20563;-71
2021/08/14 01:53:46;;;;;;;19.55;4.63;;;21.70;79.10;;;;;;4263784;27;20484;-71
2021/08/14 01:55:49;;;;;;;23.73;5.07;;;21.70;79.40;;;;;;4264029;27;20456;-71
2021/08/14 01:57:52;;;;;;;26.95;5.47;;;21.70;79.70;;;;;;4245900;27;20688;-71
2021/08/14 01:59:57;;;;;;;19.60;4.80;;;21.70;80.00;;;;;;4245445;27;20055;-72
2021/08/14 02:02:00;;;;;;;16.42;4.78;;;21.70;80.10;;;;;;4264141;27;20095;-70
2021/08/14 02:04:04;;;;;;;15.15;5.10;;;21.60;80.10;;;;;;4263921;27;20490;-71
2021/08/14 02:06:07;;;;;;;23.45;4.70;;;21.70;79.70;;;;;;4263703;27;20042;-71
2021/08/14 02:08:10;;;;;;;17.15;4.70;;;21.50;79.60;;;;;;4263502;27;20625;-72
2021/08/14 02:10:12;;;;;;;19.90;5.13;;;21.50;79.00;;;;;;4264051;27;20099;-71
2021/08/14 02:12:15;;;;;;;19.70;5.18;;;21.40;79.50;;;;;;4263845;27;20047;-71
2021/08/14 02:14:18;;;;;;;14.80;4.15;;;21.40;79.20;;;;;;4263767;27;20111;-71
2021/08/14 02:16:23;;;;;;;16.60;4.88;;;21.30;79.40;;;;;;4263446;27;20566;-72
2021/08/14 02:18:27;;;;;;;20.10;5.03;;;21.30;79.60;;;;;;4263879;27;20185;-70
2021/08/14 02:20:29;;;;;;;27.38;4.63;;;21.30;79.60;;;;;;4263731;27;20054;-71
2021/08/14 02:22:32;;;;;;;13.75;4.05;;;21.30;79.60;;;;;;4263638;27;20100;-71
2021/08/14 02:24:35;;;;;;;23.90;4.78;;;21.30;79.20;;;;;;4263642;27;20055;-71
2021/08/14 02:26:38;;;;;;;18.13;5.07;;;21.40;78.70;;;;;;4245393;27;20263;-71
2021/08/14 02:28:42;;;;;;;25.45;4.70;;;21.30;79.10;;;;;;4263359;27;20103;-71
2021/08/14 02:30:44;;;;;;;19.65;5.35;;;21.30;79.20;;;;;;4263539;27;20103;-71
2021/08/14 02:32:49;;;;;;;23.27;5.47;;;21.30;79.20;;;;;;4256570;27;20497;-70
2021/08/14 02:34:52;;;;;;;15.88;4.43;;;21.30;79.20;;;;;;4246284;27;20051;-71
2021/08/14 02:36:55;;;;;;;15.25;4.07;;;21.40;78.70;;;;;;4246149;27;20104;-70
2021/08/14 02:38:58;;;;;;;17.48;5.13;;;21.30;79.20;;;;;;4246358;27;20066;-70
2021/08/14 02:41:02;;;;;;;16.55;4.32;;;21.30;79.10;;;;;;4246081;27;20051;-71
2021/08/14 02:43:09;;;;;;;15.85;4.60;;;21.30;79.20;;;;;;4246432;27;20054;-70
2021/08/14 02:45:12;;;;;;;18.60;4.68;;;21.20;79.30;;;;;;4246143;27;20043;-71
2021/08/14 02:47:15;;;;;;;17.38;4.88;;;21.10;79.70;;;;;;4246021;27;20047;-71
2021/08/14 02:49:19;;;;;;;18.73;4.85;;;21.20;79.50;;;;;;4246010;27;20039;-70
2021/08/14 02:51:22;;;;;;;21.95;4.95;;;21.20;79.60;;;;;;4246384;27;20051;-70
2021/08/14 02:53:25;;;;;;;20.23;5.05;;;21.20;79.20;;;;;;4246019;27;20485;-70
2021/08/14 02:55:28;;;;;;;18.95;5.10;;;21.10;79.60;;;;;;4246047;27;20108;-71
2021/08/14 02:57:31;;;;;;;21.63;4.85;;;21.10;79.70;;;;;;4246019;27;20119;-71
2021/08/14 02:59:34;;;;;;;15.73;4.40;;;21.10;79.60;;;;;;4245894;27;20107;-71
2021/08/14 03:01:37;;;;;;;23.88;5.25;;;21.20;79.40;;;;;;4245985;27;20100;-70
2021/08/14 03:03:40;;;;;;;19.38;5.35;;;21.10;79.70;;;;;;4246294;27;20051;-70
2021/08/14 03:05:44;;;;;;;21.88;4.72;;;21.10;79.70;;;;;;4246400;27;20051;-71
2021/08/14 03:07:47;;;;;;;18.35;4.75;;;21.00;80.20;;;;;;4246052;27;20061;-79
2021/08/14 03:09:50;;;;;;;16.45;4.75;;;21.10;79.70;;;;;;4256137;27;20050;-70
2021/08/14 03:11:53;;;;;;;24.67;5.15;;;21.20;79.40;;;;;;4262964;27;20050;-70
2021/08/14 03:13:56;;;;;;;16.60;4.35;;;21.10;79.90;;;;;;4262925;27;20061;-70
2021/08/14 03:15:59;;;;;;;19.42;4.45;;;21.00;80.20;;;;;;4262841;27;20047;-77
2021/08/14 03:18:03;;;;;;;21.83;5.18;;;21.10;80.30;;;;;;4262586;27;20053;-85
2021/08/14 03:20:07;;;;;;;23.15;5.30;;;21.00;80.20;;;;;;4263592;27;20103;-79
2021/08/14 03:22:12;;;;;;;17.45;4.80;;;21.00;80.30;;;;;;4262819;27;20537;-73
2021/08/14 03:24:14;;;;;;;20.83;4.63;;;21.00;80.20;;;;;;4262830;27;20042;-71
2021/08/14 03:26:17;;;;;;;21.45;4.82;;;21.00;80.10;;;;;;4263035;27;20051;-71
2021/08/14 03:28:20;;;;;;;22.70;5.38;;;21.20;79.80;;;;;;4262707;27;20111;-71
2021/08/14 03:30:23;;;;;;;28.60;5.32;;;21.10;80.20;;;;;;4244384;27;20047;-71
2021/08/14 03:32:26;;;;;;;18.52;5.72;;;21.10;80.50;;;;;;4262647;27;20051;-70
2021/08/14 03:34:29;;;;;;;18.98;4.75;;;21.10;80.50;;;;;;4262784;27;20069;-71
2021/08/14 03:36:32;;;;;;;16.73;4.57;;;21.20;79.80;;;;;;4263180;27;20099;-71
2021/08/14 03:38:36;;;;;;;17.70;4.65;;;21.20;79.70;;;;;;4262778;27;20058;-71
2021/08/14 03:40:39;;;;;;;19.85;5.32;;;21.20;79.10;;;;;;4262881;27;20502;-71
2021/08/14 03:42:42;;;;;;;17.77;4.90;;;21.20;79.70;;;;;;4262954;27;20046;-71
2021/08/14 03:44:45;;;;;;;17.17;4.55;;;21.20;79.60;;;;;;4244582;27;20081;-71
2021/08/14 03:46:48;;;;;;;19.55;4.72;;;21.10;79.50;;;;;;4262594;27;20499;-71
2021/08/14 03:48:51;;;;;;;14.20;4.50;;;20.90;80.50;;;;;;4262671;27;20043;-71
2021/08/14 03:50:54;;;;;;;22.05;4.60;;;20.90;80.40;;;;;;4262607;27;20467;-71
2021/08/14 03:52:57;;;;;;;16.52;4.68;;;20.90;81.10;;;;;;4262662;27;20043;-71
2021/08/14 03:55:02;;;;;;;18.55;5.22;;;20.90;80.70;;;;;;4262477;27;20559;-70
2021/08/14 03:57:05;;;;;;;21.83;5.47;;;20.90;80.90;;;;;;4262441;27;20054;-71
2021/08/14 03:59:08;;;;;;;20.08;4.80;;;21.00;80.80;;;;;;4262927;27;20479;-71
2021/08/14 04:01:11;;;;;;;21.25;4.88;;;20.90;80.90;;;;;;4262524;27;20479;-71
2021/08/14 04:03:14;;;;;;;20.63;5.18;;;20.80;81.70;;;;;;4262503;27;20050;-71
2021/08/14 04:05:17;;;;;;;22.13;6.05;;;20.80;81.10;;;;;;4262480;27;20054;-70
2021/08/14 04:07:20;;;;;;;17.80;5.53;;;20.80;81.40;;;;;;4262564;27;20050;-71
2021/08/14 04:09:23;;;;;;;23.42;5.28;;;20.90;81.30;;;;;;4262264;27;20087;-73
2021/08/14 04:11:27;;;;;;;21.52;4.90;;;20.90;80.40;;;;;;4262559;27;20502;-71
2021/08/14 04:13:30;;;;;;;23.98;5.97;;;21.00;80.80;;;;;;4262503;27;20055;-70
2021/08/14 04:15:33;;;;;;;16.75;5.95;;;21.00;80.30;;;;;;4262446;27;20111;-70
2021/08/14 04:17:37;;;;;;;17.90;6.03;;;20.90;80.60;;;;;;4262639;27;20046;-71
2021/08/14 04:19:40;;;;;;;19.88;5.78;;;20.90;80.60;;;;;;4244260;27;20088;-71
2021/08/14 04:21:44;;;;;;;22.10;5.75;;;20.80;81.40;;;;;;4262427;27;20054;-70
2021/08/14 04:23:47;;;;;;;19.65;5.28;;;20.80;81.00;;;;;;4262403;27;20055;-70
2021/08/14 04:25:50;;;;;;;23.98;5.88;;;20.90;80.20;;;;;;4262650;27;20055;-70
2021/08/14 04:27:55;;;;;;;24.80;5.82;;;20.90;80.50;;;;;;4262724;27;20058;-70
2021/08/14 04:30:00;;;;;;;24.98;6.20;;;21.00;80.10;;;;;;4263082;27;20170;-70
2021/08/14 04:32:04;;;;;;;26.40;6.72;;;21.00;79.90;;;;;;4265120;27;20059;-70
2021/08/14 04:34:07;;;;;;;20.17;6.68;;;20.90;80.80;;;;;;4248493;27;20047;-70
2021/08/14 04:36:10;;;;;;;18.63;6.20;;;20.90;80.50;;;;;;4248478;27;20070;-69
2021/08/14 04:38:13;;;;;;;21.52;6.55;;;20.90;80.20;;;;;;4248313;27;20108;-69
2021/08/14 04:40:16;;;;;;;28.08;7.55;;;20.80;80.60;;;;;;4248352;27;20051;-70
2021/08/14 04:42:19;;;;;;;26.23;7.38;;;20.80;81.00;;;;;;4247967;27;20475;-71
2021/08/14 04:44:24;;;;;;;23.42;7.40;;;20.70;82.00;;;;;;4248141;27;20055;-70
2021/08/14 04:46:26;;;;;;;18.42;6.20;;;20.70;81.10;;;;;;4248271;27;20089;-70
2021/08/14 04:48:29;;;;;;;21.40;6.22;;;20.80;80.70;;;;;;4247812;27;20186;-69
2021/08/14 04:50:32;;;;;;;23.50;7.03;;;20.80;80.80;;;;;;4248015;27;20054;-70
2021/08/14 04:52:35;;;;;;;23.60;6.53;;;20.80;81.10;;;;;;4248121;27;20043;-70
2021/08/14 04:54:38;;;;;;;25.35;7.00;;;20.90;80.90;;;;;;4248148;27;20112;-70
2021/08/14 04:56:41;;;;;;;24.00;6.90;;;20.90;81.40;;;;;;4248254;27;20096;-70
2021/08/14 04:58:44;;;;;;;23.45;6.90;;;20.90;80.90;;;;;;4248287;27;20565;-70
2021/08/14 05:00:48;;;;;;;24.02;6.53;;;20.80;81.60;;;;;;4247830;27;20063;-70
2021/08/14 05:02:51;;;;;;;26.73;7.28;;;20.70;81.20;;;;;;4247907;27;20084;-70
2021/08/14 05:04:55;;;;;;;21.17;7.32;;;20.70;81.50;;;;;;4247821;27;20051;-70
2021/08/14 05:07:00;;;;;;;21.90;6.07;;;20.80;81.00;;;;;;4247813;27;20518;-70
2021/08/14 05:09:03;;;;;;;18.50;6.10;;;20.80;81.10;;;;;;4250783;27;20055;-70
2021/08/14 05:11:06;;;;;;;19.52;6.28;;;20.80;81.40;;;;;;4264833;27;20112;-70
2021/08/14 05:13:09;;;;;;;23.30;6.28;;;20.80;80.80;;;;;;4264814;27;20439;-71
2021/08/14 05:15:12;;;;;;;17.05;6.43;;;20.80;80.90;;;;;;4264637;27;20051;-69
2021/08/14 05:17:16;;;;;;;22.77;6.40;;;20.90;80.80;;;;;;4264926;27;20119;-72
2021/08/14 05:19:19;;;;;;;19.27;6.88;;;20.90;80.70;;;;;;4264814;27;20039;-70
2021/08/14 05:21:22;;;;;;;23.75;6.60;;;20.80;81.40;;;;;;4264567;27;20050;-70
2021/08/14 05:23:25;;;;;;;22.38;5.97;;;20.80;81.70;;;;;;4264496;27;20396;-69
2021/08/14 05:25:28;;;;;;;19.52;5.65;;;20.80;81.40;;;;;;4264510;27;20464;-70
2021/08/14 05:27:31;;;;;;;26.88;6.28;;;20.80;81.70;;;;;;4264392;27;20046;-70
2021/08/14 05:29:34;;;;;;;21.98;5.30;;;20.80;81.60;;;;;;4264539;27;20559;-70
2021/08/14 05:31:37;;;;;;;23.75;5.97;;;20.80;81.90;;;;;;4264307;27;20114;-70
2021/08/14 05:33:41;;;;;;;22.30;6.28;;;20.80;81.80;;;;;;4246195;27;20131;-72
2021/08/14 05:35:44;;;;;;;22.33;6.35;;;20.80;81.20;;;;;;4264304;27;20114;-70
2021/08/14 05:37:47;;;;;;;22.10;6.18;;;20.70;82.40;;;;;;4246006;27;20043;-69
2021/08/14 05:39:50;;;;;;;18.17;6.25;;;20.70;82.90;;;;;;4264265;27;20119;-70
2021/08/14 05:41:53;;;;;;;19.55;5.93;;;20.70;82.20;;;;;;4263728;27;20058;-70
2021/08/14 05:43:56;;;;;;;27.35;6.07;;;20.70;82.70;;;;;;4264497;27;20114;-70
2021/08/14 05:45:59;;;;;;;22.48;5.43;;;20.70;82.80;;;;;;4264471;27;20123;-69
2021/08/14 05:48:03;;;;;;;20.67;6.07;;;20.70;82.90;;;;;;4264107;27;20051;-70
2021/08/14 05:50:09;;;;;;;25.58;6.10;;;20.70;83.00;;;;;;4264959;27;20050;-75
2021/08/14 05:52:12;;;;;;;20.98;5.32;;;20.60;83.10;;;;;;4264350;27;20384;-70
2021/08/14 05:54:15;;;;;;;24.67;6.50;;;20.70;82.80;;;;;;4264380;27;20051;-70
2021/08/14 05:56:18;;;;;;;18.88;5.35;;;20.70;83.10;;;;;;4264872;27;20601;-70
2021/08/14 05:58:21;;;;;;;21.10;6.25;;;20.70;82.70;;;;;;4264133;27;20047;-70
2021/08/14 06:00:27;;;;;;;21.65;5.57;;;20.70;82.90;;;;;;4264380;27;20573;-71
2021/08/14 06:02:30;;;;;;;21.42;5.22;;;20.60;83.20;;;;;;4264265;27;20463;-70
2021/08/14 06:04:33;;;;;;;18.48;5.63;;;20.60;83.30;;;;;;4264036;27;20051;-78
2021/08/14 06:06:41;;;;;;;17.25;5.63;;;20.70;83.40;;;;;;4263722;27;20098;-70
2021/08/14 06:08:44;;;;;;;18.10;4.45;;;20.60;83.30;;;;;;4263966;27;20055;-69
2021/08/14 06:10:47;;;;;;;19.65;5.38;;;20.60;83.40;;;;;;4264154;27;20055;-70
2021/08/14 06:12:50;;;;;;;22.42;5.30;;;20.60;83.60;;;;;;4263608;27;20046;-71
2021/08/14 06:14:53;;;;;;;23.33;6.07;;;20.70;83.50;;;;;;4264049;27;20522;-70
2021/08/14 06:16:56;;;;;;;22.70;5.70;;;20.70;83.80;;;;;;4245882;27;20043;-79
2021/08/14 06:18:59;;;;;;;17.65;5.13;;;20.80;83.40;;;;;;4263930;27;20080;-70
2021/08/14 06:21:02;;;;;;;20.42;5.97;;;20.90;83.70;;;;;;4263999;27;20050;-70
2021/08/14 06:23:07;;;;;;;22.00;4.95;;;20.90;83.20;;;;;;4264382;27;20051;-70
2021/08/14 06:25:11;;;;;;;16.00;5.25;;;21.00;82.80;;;;;;4263919;27;20177;-70
2021/08/14 06:27:14;;;;;;;21.63;5.55;;;21.10;82.60;;;;;;4263691;27;20051;-70
2021/08/14 06:29:17;;;;;;;22.10;5.90;;;21.10;82.60;;;;;;4263461;27;20111;-70
2021/08/14 06:31:20;;;;;;;18.75;5.57;;;21.20;82.50;;;;;;4263400;27;20063;-69
2021/08/14 06:33:23;;;;;;;25.48;5.68;;;21.00;82.90;;;;;;4251857;27;20452;-70
2021/08/14 06:35:26;;;;;;;20.17;5.78;;;21.00;83.20;;;;;;4246602;27;20100;-69
2021/08/14 06:37:29;;;;;;;24.33;6.25;;;21.00;82.60;;;;;;4246356;27;20043;-69
2021/08/14 06:39:33;;;;;;;18.98;5.35;;;21.00;82.60;;;;;;4246289;27;20051;-69
2021/08/14 06:41:36;;;;;;;20.15;4.97;;;21.00;83.00;;;;;;4246302;27;20084;-70
2021/08/14 06:43:39;;;;;;;24.45;5.53;;;21.00;82.80;;;;;;4246393;27;20058;-69
2021/08/14 06:45:42;;;;;;;19.15;5.22;;;21.00;82.40;;;;;;4246153;27;20473;-69
2021/08/14 06:47:46;;;;;;;16.98;4.85;;;21.10;82.50;;;;;;4246144;27;20055;-69
2021/08/14 06:49:49;;;;;;;18.83;4.78;;;21.00;82.40;;;;;;4246189;27;20108;-70
2021/08/14 06:51:52;;;;;;;21.75;5.68;;;21.10;82.20;;;;;;4246103;27;20062;-69
2021/08/14 06:53:55;;;;;;;21.55;5.63;;;21.10;82.20;;;;;;4245337;27;20115;-69
2021/08/14 06:55:59;;;;;;;21.15;5.40;;;21.10;81.40;;;;;;4246213;27;20076;-69
2021/08/14 06:58:02;;;;;;;22.38;5.53;;;21.20;81.50;;;;;;4246040;27;20051;-68
2021/08/14 07:00:06;;;;;;;19.27;5.30;;;21.10;80.70;;;;;;4246557;27;20047;-70
2021/08/14 07:02:09;;;;;;;16.85;5.00;;;21.20;80.70;;;;;;4245975;27;20134;-70
2021/08/14 07:04:13;;;;;;;18.48;5.03;;;21.00;80.50;;;;;;4246057;27;20051;-70
2021/08/14 07:06:19;;;;;;;21.17;5.43;;;21.00;81.20;;;;;;4246292;27;20051;-70
2021/08/14 07:08:22;;;;;;;21.83;5.07;;;21.00;81.50;;;;;;4246207;27;20104;-69
2021/08/14 07:10:25;;;;;;;16.83;5.15;;;21.20;81.30;;;;;;4260757;27;20119;-71
2021/08/14 07:12:29;;;;;;;18.55;5.18;;;21.30;81.00;;;;;;4262780;27;20487;-70
2021/08/14 07:14:32;;;;;;;20.17;5.68;;;21.30;79.70;;;;;;4263121;27;20460;-69
2021/08/14 07:16:35;;;;;;;20.55;5.85;;;21.30;79.50;;;;;;4262942;27;20066;-70
2021/08/14 07:18:38;;;;;;;21.73;6.00;;;21.30;78.90;;;;;;4263074;27;20091;-69
2021/08/14 07:20:41;;;;;;;18.55;5.53;;;21.40;79.40;;;;;;4244615;27;20055;-69
2021/08/14 07:22:44;;;;;;;15.43;5.68;;;21.30;79.30;;;;;;4262747;27;20054;-69
2021/08/14 07:24:47;;;;;;;24.48;6.35;;;21.30;79.50;;;;;;4262980;27;20047;-70
2021/08/14 07:26:50;;;;;;;20.77;5.70;;;21.30;79.80;;;;;;4244955;27;20092;-69
2021/08/14 07:28:54;;;;;;;14.00;5.45;;;21.40;79.40;;;;;;4263160;27;20051;-70
2021/08/14 07:30:57;;;;;;;23.48;5.50;;;21.60;79.00;;;;;;4262908;27;20042;-73
2021/08/14 07:33:00;;;;;;;18.17;4.97;;;21.70;79.00;;;;;;4263035;27;20054;-70
2021/08/14 07:35:05;;;;;;;18.50;5.32;;;21.70;78.40;;;;;;4262889;27;20046;-69
2021/08/14 07:37:08;;;;;;;21.35;5.68;;;21.90;78.10;;;;;;4262962;27;20070;-70
2021/08/14 07:39:10;;;;;;;18.35;5.75;;;21.90;77.00;;;;;;4263038;27;20098;-70
2021/08/14 07:41:13;;;;;;;12.20;4.43;;;21.90;76.60;;;;;;4262966;27;20112;-70
2021/08/14 07:43:16;;;;;;;23.52;5.00;;;22.10;77.00;;;;;;4262544;27;20596;-69
2021/08/14 07:45:21;;;;;;;16.50;4.85;;;22.20;76.70;;;;;;4263114;27;20444;-75
2021/08/14 07:47:24;;;;;;;14.77;4.65;;;22.10;75.60;;;;;;4263117;27;20580;-69
2021/08/14 07:49:27;;;;;;;15.93;4.43;;;22.20;75.30;;;;;;4262662;27;20050;-69
2021/08/14 07:51:30;;;;;;;12.73;4.22;;;22.20;74.40;;;;;;4262661;27;20046;-69
2021/08/14 07:53:33;;;;;;;13.18;4.38;;;22.20;73.60;;;;;;4262605;27;20522;-69
2021/08/14 07:55:36;;;;;;;16.00;4.13;;;22.20;73.90;;;;;;4262590;27;20127;-69
2021/08/14 07:57:40;;;;;;;14.95;4.15;;;22.30;74.50;;;;;;4262489;27;20777;-68
2021/08/14 07:59:43;;;;;;;15.25;3.97;;;22.30;74.00;;;;;;4262487;27;20051;-72
2021/08/14 08:01:47;;;;;;;16.35;4.22;;;22.40;74.60;;;;;;4262452;27;20494;-71
2021/08/14 08:03:50;;;;;;;12.23;3.85;;;22.50;73.10;;;;;;4263043;27;20116;-71
2021/08/14 08:05:53;;;;;;;16.25;3.95;;;22.40;72.70;;;;;;4265843;27;20103;-71
2021/08/14 08:07:56;;;;;;;14.60;4.63;;;22.50;72.80;;;;;;4265901;27;20107;-71
2021/08/14 08:10:00;;;;;;;14.20;4.53;;;22.40;72.90;;;;;;4265762;27;20608;-71
2021/08/14 08:12:03;;;;;;;14.32;4.20;;;22.50;73.40;;;;;;4265543;27;20579;-71
2021/08/14 08:14:06;;;;;;;14.10;4.10;;;22.60;73.20;;;;;;4265645;27;20050;-72
2021/08/14 08:16:09;;;;;;;15.30;4.25;;;22.60;71.40;;;;;;4265734;27;20051;-71
2021/08/14 08:18:14;;;;;;;13.15;4.72;;;22.70;71.40;;;;;;4265890;27;20054;-71
2021/08/14 08:20:18;;;;;;;14.55;4.60;;;22.80;70.60;;;;;;4265685;27;20059;-71
2021/08/14 08:22:21;;;;;;;11.38;3.85;;;23.00;71.60;;;;;;4265821;27;20484;-71
2021/08/14 08:24:24;;;;;;;13.10;4.40;;;23.00;71.10;;;;;;4265798;27;20050;-71
2021/08/14 08:26:27;;;;;;;13.23;4.38;;;23.10;70.40;;;;;;4265262;27;20047;-71
2021/08/14 08:28:30;;;;;;;14.43;4.25;;;23.10;70.00;;;;;;4265534;27;20046;-71
2021/08/14 08:30:33;;;;;;;12.13;3.78;;;23.20;69.10;;;;;;4265184;27;20051;-71
2021/08/14 08:32:37;;;;;;;14.68;4.43;;;23.40;69.70;;;;;;4260267;27;20088;-72
2021/08/14 08:34:41;;;;;;;14.10;4.05;;;23.40;69.00;;;;;;4248213;27;20556;-71
2021/08/14 08:36:44;;;;;;;12.95;4.13;;;23.60;69.70;;;;;;4248423;27;20059;-71
2021/08/14 08:38:47;;;;;;;11.80;3.88;;;23.80;68.70;;;;;;4248683;27;20396;-71
2021/08/14 08:40:50;;;;;;;14.50;4.68;;;23.90;68.70;;;;;;4248943;27;20137;-72
2021/08/14 08:42:53;;;;;;;11.77;4.18;;;24.00;69.30;;;;;;4230896;28;20044;-71
2021/08/14 08:44:58;;;;;;;16.60;4.77;;;24.00;68.00;;;;;;4248495;27;20051;-71
2021/08/14 08:47:01;;;;;;;12.00;3.85;;;24.10;68.60;;;;;;4248267;27;20992;-71
2021/08/14 08:49:05;;;;;;;10.65;3.97;;;24.20;69.30;;;;;;4229769;27;20085;-70
2021/08/14 08:51:10;;;;;;;10.07;4.75;;;24.30;68.10;;;;;;4248027;27;20043;-71
2021/08/14 08:53:13;;;;;;;10.73;4.25;;;24.30;68.30;;;;;;4247717;27;20063;-71
2021/08/14 08:55:16;;;;;;;17.27;5.00;;;24.40;68.80;;;;;;4248085;27;20047;-70
2021/08/14 08:57:19;;;;;;;13.57;5.40;;;24.60;68.40;;;;;;4248115;27;20116;-71
2021/08/14 08:59:22;;;;;;;13.48;5.40;;;24.70;67.70;;;;;;4249010;27;20055;-72
2021/08/14 09:01:25;;;;;;;13.13;5.18;;;24.70;66.40;;;;;;4259363;27;20099;-72
2021/08/14 09:03:30;;;;;;;11.93;5.15;;;24.70;64.70;;;;;;4249881;27;20051;-71
2021/08/14 09:05:43;;;;;;;15.00;5.18;;;24.70;65.00;;;;;;4267205;27;20515;-71
2021/08/14 09:07:49;;;;;;;11.73;5.18;;;24.60;65.80;;;;;;4265879;27;20054;-71
2021/08/14 09:09:58;;;;;;;11.50;4.93;;;24.60;64.30;;;;;;4265478;27;20084;-71
2021/08/14 09:12:05;;;;;;;14.60;5.25;;;24.70;63.10;;;;;;4247028;27;20482;-72
2021/08/14 09:14:08;;;;;;;13.68;5.25;;;24.60;62.90;;;;;;4265122;27;20062;-74
2021/08/14 09:16:21;;;;;;;14.32;5.40;;;24.70;63.50;;;;;;4264105;27;20115;-73
2021/08/14 09:18:24;;;;;;;11.15;5.40;;;24.80;63.60;;;;;;4262783;27;20054;-72
2021/08/14 09:20:27;;;;;;;11.75;5.20;;;24.90;63.10;;;;;;4264658;27;20046;-73
2021/08/14 09:22:30;;;;;;;12.25;5.00;;;24.90;62.50;;;;;;4264549;27;20511;-72
2021/08/14 09:24:38;;;;;;;13.75;5.70;;;24.90;62.30;;;;;;4264807;27;20107;-71
2021/08/14 09:26:59;;;;;;;14.43;4.72;;;24.90;62.50;;;;;;4246372;27;20043;-78
2021/08/14 09:29:03;;;;;;;13.07;5.50;;;24.90;62.70;;;;;;4246751;27;20062;-73
2021/08/14 09:31:07;;;;;;;11.80;5.00;;;25.00;63.00;;;;;;4264907;27;20077;-72
2021/08/14 09:33:13;;;;;;;15.82;6.03;;;25.10;64.30;;;;;;4264612;27;20119;-71
2021/08/14 09:35:25;;;;;;;8.85;4.93;;;25.10;63.40;;;;;;4246457;27;20113;-71
2021/08/14 09:37:35;;;;;;;17.58;6.18;;;25.40;63.80;;;;;;4265052;27;20046;-71
2021/08/14 09:39:53;;;;;;;11.75;5.40;;;25.40;61.80;;;;;;4265261;27;20059;-71
2021/08/14 09:42:05;;;;;;;12.68;4.90;;;25.40;62.50;;;;;;4262838;27;20494;-76
2021/08/14 09:44:15;;;;;;;13.52;5.53;;;25.40;62.20;;;;;;4258167;27;20062;-71
2021/08/14 09:46:19;;;;;;;10.90;4.95;;;25.50;61.60;;;;;;4264135;27;20046;-71
2021/08/14 09:48:24;;;;;;;15.38;5.38;;;25.70;62.00;;;;;;4266721;27;20093;-76
2021/08/14 09:50:37;;;;;;;16.08;5.57;;;25.70;62.10;;;;;;4265785;27;20614;-71
2021/08/14 09:52:46;;;;;;;14.23;4.88;;;25.70;62.20;;;;;;4265142;27;20065;-80
2021/08/14 09:54:55;;;;;;;11.88;4.88;;;25.50;61.70;;;;;;4254057;27;20058;-70
2021/08/14 09:57:13;;;;;;;11.60;5.03;;;25.50;61.00;;;;;;4271071;27;20055;-72
2021/08/14 09:59:18;;;;;;;15.52;4.78;;;25.70;62.00;;;;;;4272187;27;20295;-71
2021/08/14 10:01:22;;;;;;;10.00;4.60;;;25.80;62.30;;;;;;4267194;27;20054;-72
2021/08/14 10:03:27;;;;;;;11.80;5.20;;;25.90;61.80;;;;;;4266316;27;20051;-70
2021/08/14 10:05:32;;;;;;;14.85;5.10;;;26.00;61.80;;;;;;4264381;27;20043;-70
2021/08/14 10:07:35;;;;;;;13.27;5.55;;;26.10;61.90;;;;;;4263754;27;20046;-71
2021/08/14 10:09:38;;;;;;;14.40;5.28;;;26.20;62.50;;;;;;4245759;27;20047;-68
2021/08/14 10:11:42;;;;;;;12.30;4.88;;;26.20;61.80;;;;;;4264221;27;20051;-69
2021/08/14 10:13:45;;;;;;;20.42;5.32;;;26.30;61.20;;;;;;4264086;27;20066;-69
2021/08/14 10:15:49;;;;;;;13.25;5.57;;;26.50;62.40;;;;;;4264250;27;20051;-69
2021/08/14 10:17:52;;;;;;;12.38;5.20;;;26.60;62.30;;;;;;4255441;27;20494;-68
2021/08/14 10:19:55;;;;;;;14.88;5.50;;;26.70;62.40;;;;;;4247319;27;20050;-71
2021/08/14 10:21:59;;;;;;;12.18;5.53;;;26.80;60.80;;;;;;4247273;27;20051;-68
2021/08/14 10:24:03;;;;;;;12.38;5.93;;;26.80;61.20;;;;;;4247086;27;20126;-69
2021/08/14 10:26:14;;;;;;;11.88;5.30;;;26.80;60.80;;;;;;4258043;27;20522;-74
2021/08/14 10:28:18;;;;;;;12.40;5.30;;;26.80;60.70;;;;;;4245722;27;20112;-76
2021/08/14 10:30:41;;;;;;;10.70;5.57;;;26.80;61.10;;;;;;4264349;27;20142;-69
2021/08/14 10:32:45;;;;;;;7.97;4.55;;;26.90;60.60;;;;;;4264328;27;20620;-73
2021/08/14 10:34:48;;;;;;;13.88;5.90;;;26.90;59.80;;;;;;4263872;27;20055;-69
2021/08/14 10:36:52;;;;;;;9.45;5.20;;;26.80;59.60;;;;;;4264059;27;20038;-68